Spelunky HD - Low% No Gold

Definition: A run ending with the win criteria of both the Low% speedrun and the No-gold speedrun combined.


Rank Player Time Rating Spelunker Platform Video Comment
1   Kinnijup 2:43.007 100.00% Scary 5 bomb Olmec, troll gold
2   Spef 2:50.928 95.37% fast start
3   falafel_raptor 2:51.905 94.82% HeavyBreathing
4   Pibonacci 2:52.516 94.49% Awesome
5   Groomp 2:54.445 93.44% wowzers :)
6   Buddy7heElf 2:59.520 90.80% Sub 3!
7   d_tea 3:00.105 90.51% Olmec fail
8   BlueCadet-3 3:02.547 89.30% [ B ]
9   Carlibraun 3:04.445 88.38% 15s 2-4, 18s Wet Fur & sloppy olmec. Rest was perfect. Happy
10   kobs92 3:05.604 87.83% Yay
11   SAIBOT 3:05.754 87.75% boring run
12   chocolatecake5000 3:05.862 87.70% yeet
13   krille71 3:07.318 87.02% Looking better
14   meowmixmix 3:10.969 85.36% 2 pbs in a night :O
15   Baq 3:11.623 85.07% spicy 3-1 and 4-3. bad olmec
16   Kirby703 3:11.704 85.03% idk if I'm satisfied, but it's no longer "slow"
17   Vlad 3:12.305 84.76% funky Olmec
18   DieDai 3:14.179 83.95% okay run, bad jungle
19   BronxTaco 3:19.827 81.57% olmec crust gold scary...
20   ix 3:21.167 81.03% star baker
21   TheNitromeFan 3:21.353 80.96% Fun run.
22   GruntingCrunchy 3:22.189 80.62% Improvised Olmec
23   DaftLunk 3:25.644 79.27% Olmec gold :(
24   Linkruler 3:29.461 77.82% Nice seed, up until lategame
25   Mazerak 3:29.517 77.80% finally bested my oldest pb
26   twiggle 3:31.000 77.25%
27   Polodajaneiro 3:32.024 76.88%
28   ShinGraywords 3:33.763 76.26% 5 hr grind session led to major frustration and minor PB
29   samcv 3:34.803 75.89% could've been sub 3:30 but olmec
30   TicTacFoe 3:40.269 74.00% this game is fun
31   NightHarvester 3:40.447 73.94% Bad Olmec
32   bowmaneer01 3:40.469 73.94% :))
33   Sedoxa 3:41.615 73.55% aaannnnnddd another horrible temple :|
34   Bum 3:45.333 72.34% Have a 3:21 i never uploaded
35   InTol 3:47.097 71.78% Some nasty levels
36   Abob71 3:50.908 70.59% BAAAAAAAAAAAAAAAD Olmec
37   Khold 3:52.365 70.15%
38   JakeTreester 3:52.749 70.04% Good Olmec RNG :O
39   jjg27 3:53.365 69.85% wow!!
40   SchnitzelDX 3:55.633 69.18% 1st no gold run in a year
41   AlwaysOlmec 3:55.766 69.14% Nice levels
42   Eszik 4:05.530 66.39% Finally got it :D Could be better but I'm happy with this
43   pojopoopoohead 4:07.105 65.97% Close deaths in 4-1 and 4-2 along with nail biting Olmec
44   HOBT0R 4:07.539 65.85% First time I pulled off the 1-bomb Olmec fight correctly
45   thatmarkguy 4:10.496 65.07% 37th time's the charm. 36 straight temple fails before this
46   Hectique 4:10.878 64.97% sure
47   Stiljoz 4:12.647 64.52% God-tier Mines Seed
48   Suspense 4:16.232 63.62% Soon after my first AJE completion too!
49   bootsthatshoot 4:16.811 63.47% drunken no gold low% hype
50   saturnin55 4:25.648 61.36% bat
51   Alcoer 4:37.000 58.85%
52   HeinzSkitsvelvet 4:39.143 58.40% Running on PC!
53   Berumondo 4:39.933 58.23% 1st completion, but shitty layouts all over the place
54   Yandie 4:42.259 57.75% yeeeeee
55   GreatStriker 4:43.315 57.54% olmec crushed one ruby
56   Dr. Probably 4:52.549 55.72% FINALLY
57   Maplestrip 4:56.297 55.01% I thought No Gold was hard, but this was easy! 0.o
58   jgunz3 4:56.448 54.99% Low% No Gold (feels good)
59   Pajecka7891 4:57.449 54.80% First pb on new PC!
60   MikeIsMyIke 5:01.082 54.14% 58s dark 2-4 :(
61   zebrazuber 5:07.825 52.95% Finally! I just needed to slow down all along
62   Stuoid 5:11.709 52.29% decent
63   Konato_K 5:12.042 52.24% Why do only the slow runs get to live ;-;
64   denis1080 5:20.312 50.89% Wasn't gonna lose 2 LowNG runs in a row on Olmec!
65   JPlay 5:33.701 48.85% Finally
66   Kittenwarlock 5:39.064 48.08% Not fast but at least it's a main category
67   MNC mascot 5:42.459 47.60% Olmec bomb toss saved me
68   kvec 5:46.565 47.04% first completion
69   Skylark 5:48.314 46.80% Spectral Bunny
70   Loki Nighton 6:07.511 44.35% Pauper bun is traumatised, must pay for counselling
71   Sawr 6:15.284 43.44% slow and steady!
72   [REDACTED] 6:21.762 42.70% I love the idea of these extra achievements!
73   Patdog56 6:33.057 41.47% super slowmec but whatevs \o/
74   DiMono 6:36.864 41.07% Woo!
75   courgette 6:37.833 40.97%
76   slink 6:40.933 40.66% THE NIGHTMARE IS OVER
77   AlphaChannel 6:58.024 38.99%
78   ContraMuffin 7:03.397 38.50%
79   tuabiht 7:21.713 36.90% Olmec 4 bomb safe strat
80   theZaxanator 7:22.605 36.83% This is shit but I'll come back to it later
81   Mikulus 7:31.899 36.07% Failed No%
82   gjchangmu 8:18.142 32.72% tried for 16 minutes...
83   E5ten 8:41.481 31.26% worst cat tbh
84   Cloiss 9:34.695 28.36% oh hey I completed a run
85   ShadowDx 12:32.084 21.67% Phew